sensor_id;sensor_type;location;lat;lon;timestamp;P1;durP1;ratioP1;P2;durP2;ratioP2
51020;SDS011;38907;45.562;8.856;2023-06-14T00:04:46;26.05;;;19.50;;
51020;SDS011;38907;45.562;8.856;2023-06-14T00:09:48;26.33;;;20.48;;
51020;SDS011;38907;45.562;8.856;2023-06-14T00:14:51;24.47;;;19.40;;
51020;SDS011;38907;45.562;8.856;2023-06-14T00:19:53;26.77;;;18.60;;
51020;SDS011;38907;45.562;8.856;2023-06-14T00:24:56;21.20;;;15.65;;
51020;SDS011;38907;45.562;8.856;2023-06-14T00:30:00;21.30;;;16.17;;
51020;SDS011;38907;45.562;8.856;2023-06-14T00:35:02;20.95;;;16.17;;
51020;SDS011;38907;45.562;8.856;2023-06-14T00:40:04;28.92;;;17.92;;
51020;SDS011;38907;45.562;8.856;2023-06-14T00:45:09;24.77;;;17.88;;
51020;SDS011;38907;45.562;8.856;2023-06-14T00:50:11;24.23;;;18.52;;
51020;SDS011;38907;45.562;8.856;2023-06-14T00:55:14;23.88;;;18.45;;
51020;SDS011;38907;45.562;8.856;2023-06-14T01:00:17;21.97;;;18.03;;
51020;SDS011;38907;45.562;8.856;2023-06-14T01:05:19;23.98;;;17.30;;
51020;SDS011;38907;45.562;8.856;2023-06-14T01:10:32;22.98;;;16.52;;
51020;SDS011;38907;45.562;8.856;2023-06-14T01:15:43;15.32;;;11.18;;
51020;SDS011;38907;45.562;8.856;2023-06-14T01:20:46;10.25;;;7.88;;
51020;SDS011;38907;45.562;8.856;2023-06-14T01:25:50;6.90;;;5.43;;
51020;SDS011;38907;45.562;8.856;2023-06-14T01:30:53;5.00;;;4.50;;
51020;SDS011;38907;45.562;8.856;2023-06-14T01:35:55;3.20;;;2.90;;
51020;SDS011;38907;45.562;8.856;2023-06-14T01:40:59;3.05;;;2.75;;
51020;SDS011;38907;45.562;8.856;2023-06-14T01:46:02;5.53;;;4.38;;
51020;SDS011;38907;45.562;8.856;2023-06-14T01:51:05;4.88;;;4.28;;
51020;SDS011;38907;45.562;8.856;2023-06-14T01:56:08;6.30;;;4.55;;
51020;SDS011;38907;45.562;8.856;2023-06-14T02:01:10;7.63;;;6.40;;
51020;SDS011;38907;45.562;8.856;2023-06-14T02:06:12;8.02;;;6.15;;
51020;SDS011;38907;45.562;8.856;2023-06-14T02:11:17;6.90;;;6.15;;
51020;SDS011;38907;45.562;8.856;2023-06-14T02:16:19;9.75;;;7.38;;
51020;SDS011;38907;45.562;8.856;2023-06-14T02:21:21;9.50;;;8.10;;
51020;SDS011;38907;45.562;8.856;2023-06-14T02:26:24;11.32;;;7.85;;
51020;SDS011;38907;45.562;8.856;2023-06-14T02:31:28;13.43;;;9.00;;
51020;SDS011;38907;45.562;8.856;2023-06-14T02:36:30;11.57;;;8.95;;
51020;SDS011;38907;45.562;8.856;2023-06-14T02:41:33;15.73;;;9.40;;
51020;SDS011;38907;45.562;8.856;2023-06-14T02:46:35;13.30;;;8.50;;
51020;SDS011;38907;45.562;8.856;2023-06-14T02:51:37;11.10;;;8.80;;
51020;SDS011;38907;45.562;8.856;2023-06-14T02:56:41;8.98;;;6.57;;
51020;SDS011;38907;45.562;8.856;2023-06-14T03:01:43;10.02;;;7.63;;
51020;SDS011;38907;45.562;8.856;2023-06-14T03:06:45;10.32;;;7.85;;
51020;SDS011;38907;45.562;8.856;2023-06-14T03:11:51;13.30;;;8.15;;
51020;SDS011;38907;45.562;8.856;2023-06-14T03:16:53;12.00;;;8.38;;
51020;SDS011;38907;45.562;8.856;2023-06-14T03:21:56;15.20;;;10.32;;
51020;SDS011;38907;45.562;8.856;2023-06-14T03:27:00;14.73;;;10.33;;
51020;SDS011;38907;45.562;8.856;2023-06-14T03:32:02;13.35;;;10.73;;
51020;SDS011;38907;45.562;8.856;2023-06-14T03:37:05;13.82;;;11.18;;
51020;SDS011;38907;45.562;8.856;2023-06-14T03:42:08;13.55;;;11.13;;
51020;SDS011;38907;45.562;8.856;2023-06-14T03:47:10;12.25;;;10.35;;
51020;SDS011;38907;45.562;8.856;2023-06-14T03:52:12;11.32;;;9.70;;
51020;SDS011;38907;45.562;8.856;2023-06-14T03:57:17;11.38;;;8.80;;
51020;SDS011;38907;45.562;8.856;2023-06-14T04:02:20;10.82;;;8.90;;
51020;SDS011;38907;45.562;8.856;2023-06-14T04:07:22;9.65;;;8.00;;
51020;SDS011;38907;45.562;8.856;2023-06-14T04:12:26;9.00;;;7.60;;
51020;SDS011;38907;45.562;8.856;2023-06-14T04:17:28;7.60;;;6.80;;
51020;SDS011;38907;45.562;8.856;2023-06-14T04:22:30;8.63;;;6.97;;
51020;SDS011;38907;45.562;8.856;2023-06-14T04:27:33;7.65;;;6.68;;
51020;SDS011;38907;45.562;8.856;2023-06-14T04:32:36;6.68;;;6.05;;
51020;SDS011;38907;45.562;8.856;2023-06-14T04:42:42;8.73;;;6.32;;
51020;SDS011;38907;45.562;8.856;2023-06-14T04:47:46;9.75;;;7.03;;
51020;SDS011;38907;45.562;8.856;2023-06-14T04:52:48;7.75;;;6.55;;
51020;SDS011;38907;45.562;8.856;2023-06-14T04:57:52;7.45;;;6.57;;
51020;SDS011;38907;45.562;8.856;2023-06-14T05:02:54;8.18;;;7.10;;
51020;SDS011;38907;45.562;8.856;2023-06-14T05:07:57;7.70;;;6.78;;
51020;SDS011;38907;45.562;8.856;2023-06-14T05:13:00;7.83;;;6.63;;
51020;SDS011;38907;45.562;8.856;2023-06-14T05:18:02;8.32;;;6.80;;
51020;SDS011;38907;45.562;8.856;2023-06-14T05:23:04;11.00;;;7.03;;
51020;SDS011;38907;45.562;8.856;2023-06-14T05:28:07;8.45;;;7.07;;
51020;SDS011;38907;45.562;8.856;2023-06-14T05:33:09;9.75;;;7.68;;
51020;SDS011;38907;45.562;8.856;2023-06-14T05:38:11;10.38;;;7.75;;
51020;SDS011;38907;45.562;8.856;2023-06-14T05:43:14;12.77;;;7.53;;
51020;SDS011;38907;45.562;8.856;2023-06-14T05:48:16;9.68;;;7.30;;
51020;SDS011;38907;45.562;8.856;2023-06-14T05:53:18;9.00;;;7.45;;
51020;SDS011;38907;45.562;8.856;2023-06-14T05:58:21;12.13;;;8.45;;
51020;SDS011;38907;45.562;8.856;2023-06-14T06:03:23;11.48;;;7.63;;
51020;SDS011;38907;45.562;8.856;2023-06-14T06:08:25;12.30;;;7.50;;
51020;SDS011;38907;45.562;8.856;2023-06-14T06:13:28;10.07;;;7.33;;
51020;SDS011;38907;45.562;8.856;2023-06-14T06:18:30;9.43;;;7.35;;
51020;SDS011;38907;45.562;8.856;2023-06-14T06:23:32;9.80;;;7.20;;
51020;SDS011;38907;45.562;8.856;2023-06-14T06:28:35;7.80;;;6.88;;
51020;SDS011;38907;45.562;8.856;2023-06-14T06:33:37;8.70;;;7.28;;
51020;SDS011;38907;45.562;8.856;2023-06-14T06:38:40;9.82;;;7.28;;
51020;SDS011;38907;45.562;8.856;2023-06-14T06:43:44;9.17;;;7.23;;
51020;SDS011;38907;45.562;8.856;2023-06-14T06:48:46;12.57;;;7.32;;
51020;SDS011;38907;45.562;8.856;2023-06-14T06:53:51;9.53;;;7.50;;
51020;SDS011;38907;45.562;8.856;2023-06-14T06:58:56;7.70;;;6.93;;
51020;SDS011;38907;45.562;8.856;2023-06-14T07:03:57;8.70;;;6.70;;
51020;SDS011;38907;45.562;8.856;2023-06-14T07:08:59;11.17;;;6.67;;
51020;SDS011;38907;45.562;8.856;2023-06-14T07:14:03;7.20;;;6.50;;
51020;SDS011;38907;45.562;8.856;2023-06-14T07:19:05;7.43;;;5.60;;
51020;SDS011;38907;45.562;8.856;2023-06-14T07:24:06;7.87;;;6.10;;
51020;SDS011;38907;45.562;8.856;2023-06-14T07:29:10;10.87;;;6.40;;
51020;SDS011;38907;45.562;8.856;2023-06-14T07:34:12;9.18;;;6.63;;
51020;SDS011;38907;45.562;8.856;2023-06-14T07:39:14;6.77;;;6.07;;
51020;SDS011;38907;45.562;8.856;2023-06-14T07:44:17;8.07;;;6.03;;
51020;SDS011;38907;45.562;8.856;2023-06-14T07:49:19;8.13;;;6.10;;
51020;SDS011;38907;45.562;8.856;2023-06-14T07:54:20;9.43;;;6.07;;
51020;SDS011;38907;45.562;8.856;2023-06-14T07:59:27;9.65;;;6.25;;
51020;SDS011;38907;45.562;8.856;2023-06-14T08:04:28;7.30;;;6.30;;
51020;SDS011;38907;45.562;8.856;2023-06-14T08:09:31;8.70;;;6.53;;
51020;SDS011;38907;45.562;8.856;2023-06-14T08:14:34;7.33;;;6.30;;
51020;SDS011;38907;45.562;8.856;2023-06-14T08:19:36;10.90;;;6.20;;
51020;SDS011;38907;45.562;8.856;2023-06-14T08:24:38;6.80;;;5.73;;
51020;SDS011;38907;45.562;8.856;2023-06-14T08:34:43;8.47;;;5.77;;
51020;SDS011;38907;45.562;8.856;2023-06-14T08:39:45;7.73;;;5.80;;
51020;SDS011;38907;45.562;8.856;2023-06-14T08:44:48;9.15;;;6.40;;
51020;SDS011;38907;45.562;8.856;2023-06-14T08:49:50;9.68;;;6.47;;
51020;SDS011;38907;45.562;8.856;2023-06-14T08:54:55;9.18;;;7.30;;
51020;SDS011;38907;45.562;8.856;2023-06-14T08:59:58;11.48;;;6.97;;
51020;SDS011;38907;45.562;8.856;2023-06-14T09:05:10;10.38;;;7.70;;
51020;SDS011;38907;45.562;8.856;2023-06-14T09:10:14;11.95;;;7.65;;
51020;SDS011;38907;45.562;8.856;2023-06-14T09:15:17;8.85;;;7.15;;
51020;SDS011;38907;45.562;8.856;2023-06-14T09:20:20;9.35;;;6.70;;
51020;SDS011;38907;45.562;8.856;2023-06-14T09:25:22;10.25;;;7.43;;
51020;SDS011;38907;45.562;8.856;2023-06-14T09:30:26;10.82;;;6.80;;
51020;SDS011;38907;45.562;8.856;2023-06-14T09:35:30;8.95;;;6.35;;
51020;SDS011;38907;45.562;8.856;2023-06-14T09:40:33;7.28;;;5.75;;
51020;SDS011;38907;45.562;8.856;2023-06-14T09:45:39;6.65;;;5.95;;
51020;SDS011;38907;45.562;8.856;2023-06-14T09:50:45;7.65;;;5.13;;
51020;SDS011;38907;45.562;8.856;2023-06-14T09:55:48;8.98;;;7.25;;
51020;SDS011;38907;45.562;8.856;2023-06-14T10:00:53;8.15;;;6.75;;
51020;SDS011;38907;45.562;8.856;2023-06-14T10:05:57;8.43;;;6.78;;
51020;SDS011;38907;45.562;8.856;2023-06-14T10:11:03;8.95;;;6.72;;
51020;SDS011;38907;45.562;8.856;2023-06-14T10:16:07;10.23;;;7.97;;
51020;SDS011;38907;45.562;8.856;2023-06-14T10:21:15;9.23;;;6.40;;
51020;SDS011;38907;45.562;8.856;2023-06-14T10:26:23;7.82;;;6.57;;
51020;SDS011;38907;45.562;8.856;2023-06-14T10:31:43;12.45;;;7.10;;
51020;SDS011;38907;45.562;8.856;2023-06-14T10:36:46;7.82;;;6.30;;
51020;SDS011;38907;45.562;8.856;2023-06-14T10:42:03;7.20;;;5.43;;
51020;SDS011;38907;45.562;8.856;2023-06-14T10:47:08;6.80;;;5.15;;
51020;SDS011;38907;45.562;8.856;2023-06-14T10:52:13;6.32;;;5.10;;
51020;SDS011;38907;45.562;8.856;2023-06-14T10:57:18;7.50;;;6.40;;
51020;SDS011;38907;45.562;8.856;2023-06-14T11:02:44;6.75;;;5.82;;
51020;SDS011;38907;45.562;8.856;2023-06-14T11:07:58;7.18;;;6.03;;
51020;SDS011;38907;45.562;8.856;2023-06-14T11:13:16;8.93;;;6.85;;
51020;SDS011;38907;45.562;8.856;2023-06-14T11:18:21;6.63;;;5.13;;
51020;SDS011;38907;45.562;8.856;2023-06-14T11:23:27;7.30;;;4.72;;
51020;SDS011;38907;45.562;8.856;2023-06-14T11:28:36;6.25;;;4.85;;
51020;SDS011;38907;45.562;8.856;2023-06-14T11:33:40;8.95;;;5.07;;
51020;SDS011;38907;45.562;8.856;2023-06-14T11:38:42;5.22;;;4.18;;
51020;SDS011;38907;45.562;8.856;2023-06-14T11:43:44;5.45;;;4.55;;
51020;SDS011;38907;45.562;8.856;2023-06-14T11:48:47;10.15;;;6.22;;
51020;SDS011;38907;45.562;8.856;2023-06-14T11:53:49;10.77;;;6.40;;
51020;SDS011;38907;45.562;8.856;2023-06-14T11:58:52;8.48;;;6.25;;
51020;SDS011;38907;45.562;8.856;2023-06-14T12:03:58;8.60;;;6.53;;
51020;SDS011;38907;45.562;8.856;2023-06-14T12:09:03;10.00;;;6.60;;
51020;SDS011;38907;45.562;8.856;2023-06-14T12:14:07;8.90;;;6.28;;
51020;SDS011;38907;45.562;8.856;2023-06-14T12:19:13;7.00;;;6.28;;
51020;SDS011;38907;45.562;8.856;2023-06-14T12:24:15;9.55;;;7.80;;
51020;SDS011;38907;45.562;8.856;2023-06-14T12:29:18;7.97;;;6.28;;
51020;SDS011;38907;45.562;8.856;2023-06-14T12:34:22;8.15;;;6.18;;
51020;SDS011;38907;45.562;8.856;2023-06-14T12:39:24;13.35;;;8.27;;
51020;SDS011;38907;45.562;8.856;2023-06-14T12:44:26;14.48;;;9.13;;
51020;SDS011;38907;45.562;8.856;2023-06-14T12:49:29;17.08;;;8.38;;
51020;SDS011;38907;45.562;8.856;2023-06-14T12:54:31;11.00;;;7.60;;
51020;SDS011;38907;45.562;8.856;2023-06-14T12:59:33;9.00;;;7.20;;
51020;SDS011;38907;45.562;8.856;2023-06-14T13:04:36;11.27;;;8.15;;
51020;SDS011;38907;45.562;8.856;2023-06-14T13:09:38;11.13;;;8.27;;
51020;SDS011;38907;45.562;8.856;2023-06-14T13:14:40;8.35;;;7.30;;
51020;SDS011;38907;45.562;8.856;2023-06-14T13:19:43;8.98;;;6.72;;
51020;SDS011;38907;45.562;8.856;2023-06-14T13:24:45;7.32;;;6.35;;
51020;SDS011;38907;45.562;8.856;2023-06-14T13:29:47;7.78;;;6.50;;
51020;SDS011;38907;45.562;8.856;2023-06-14T13:34:50;9.95;;;6.57;;
51020;SDS011;38907;45.562;8.856;2023-06-14T13:39:52;9.45;;;8.48;;
51020;SDS011;38907;45.562;8.856;2023-06-14T13:44:54;10.88;;;7.75;;
51020;SDS011;38907;45.562;8.856;2023-06-14T13:49:57;9.40;;;6.78;;
51020;SDS011;38907;45.562;8.856;2023-06-14T13:54:59;10.77;;;8.07;;
51020;SDS011;38907;45.562;8.856;2023-06-14T14:00:01;13.15;;;8.35;;
51020;SDS011;38907;45.562;8.856;2023-06-14T14:05:05;9.65;;;7.07;;
51020;SDS011;38907;45.562;8.856;2023-06-14T14:10:08;11.32;;;9.23;;
51020;SDS011;38907;45.562;8.856;2023-06-14T14:15:13;10.30;;;8.18;;
51020;SDS011;38907;45.562;8.856;2023-06-14T14:20:24;10.45;;;8.20;;
51020;SDS011;38907;45.562;8.856;2023-06-14T14:25:35;8.30;;;7.30;;
51020;SDS011;38907;45.562;8.856;2023-06-14T14:30:37;9.60;;;6.15;;
51020;SDS011;38907;45.562;8.856;2023-06-14T14:35:41;7.72;;;6.50;;
51020;SDS011;38907;45.562;8.856;2023-06-14T14:40:44;8.85;;;6.72;;
51020;SDS011;38907;45.562;8.856;2023-06-14T14:45:46;8.25;;;7.30;;
51020;SDS011;38907;45.562;8.856;2023-06-14T14:50:49;9.50;;;6.43;;
51020;SDS011;38907;45.562;8.856;2023-06-14T14:55:51;6.78;;;6.07;;
51020;SDS011;38907;45.562;8.856;2023-06-14T15:00:53;8.93;;;6.50;;
51020;SDS011;38907;45.562;8.856;2023-06-14T15:05:56;8.75;;;6.60;;
51020;SDS011;38907;45.562;8.856;2023-06-14T15:10:58;8.50;;;7.00;;
51020;SDS011;38907;45.562;8.856;2023-06-14T15:21:04;8.80;;;7.75;;
51020;SDS011;38907;45.562;8.856;2023-06-14T15:26:05;10.35;;;6.90;;
51020;SDS011;38907;45.562;8.856;2023-06-14T15:31:07;12.90;;;7.18;;
51020;SDS011;38907;45.562;8.856;2023-06-14T15:36:11;7.65;;;6.60;;
51020;SDS011;38907;45.562;8.856;2023-06-14T15:41:13;8.27;;;7.47;;
51020;SDS011;38907;45.562;8.856;2023-06-14T15:46:14;7.80;;;7.00;;
51020;SDS011;38907;45.562;8.856;2023-06-14T15:51:18;12.18;;;7.18;;
51020;SDS011;38907;45.562;8.856;2023-06-14T15:56:21;8.20;;;7.40;;
51020;SDS011;38907;45.562;8.856;2023-06-14T16:01:31;10.20;;;9.20;;
51020;SDS011;38907;45.562;8.856;2023-06-14T16:11:37;7.20;;;6.50;;
51020;SDS011;38907;45.562;8.856;2023-06-14T16:16:38;9.45;;;8.23;;
51020;SDS011;38907;45.562;8.856;2023-06-14T16:21:42;12.73;;;8.80;;
51020;SDS011;38907;45.562;8.856;2023-06-14T16:26:44;11.90;;;9.07;;
51020;SDS011;38907;45.562;8.856;2023-06-14T16:31:46;9.18;;;7.72;;
51020;SDS011;38907;45.562;8.856;2023-06-14T16:36:49;11.18;;;9.95;;
51020;SDS011;38907;45.562;8.856;2023-06-14T16:41:51;11.32;;;8.90;;
51020;SDS011;38907;45.562;8.856;2023-06-14T16:46:52;11.43;;;10.32;;
51020;SDS011;38907;45.562;8.856;2023-06-14T16:51:56;10.77;;;9.50;;
51020;SDS011;38907;45.562;8.856;2023-06-14T16:56:58;11.35;;;8.48;;
51020;SDS011;38907;45.562;8.856;2023-06-14T17:12:07;14.32;;;9.30;;
51020;SDS011;38907;45.562;8.856;2023-06-14T17:17:10;13.95;;;9.38;;
51020;SDS011;38907;45.562;8.856;2023-06-14T17:22:13;12.32;;;8.18;;
51020;SDS011;38907;45.562;8.856;2023-06-14T17:27:15;12.82;;;10.07;;
51020;SDS011;38907;45.562;8.856;2023-06-14T17:32:17;11.35;;;9.07;;
51020;SDS011;38907;45.562;8.856;2023-06-14T17:37:21;16.00;;;12.77;;
51020;SDS011;38907;45.562;8.856;2023-06-14T17:42:23;14.68;;;8.48;;
51020;SDS011;38907;45.562;8.856;2023-06-14T17:47:25;9.73;;;8.68;;
51020;SDS011;38907;45.562;8.856;2023-06-14T17:52:28;11.73;;;9.13;;
51020;SDS011;38907;45.562;8.856;2023-06-14T17:57:30;14.55;;;8.88;;
51020;SDS011;38907;45.562;8.856;2023-06-14T18:02:32;12.20;;;9.23;;
51020;SDS011;38907;45.562;8.856;2023-06-14T18:07:35;12.70;;;8.50;;
51020;SDS011;38907;45.562;8.856;2023-06-14T18:12:38;11.45;;;8.05;;
51020;SDS011;38907;45.562;8.856;2023-06-14T18:17:40;11.57;;;7.47;;
51020;SDS011;38907;45.562;8.856;2023-06-14T18:22:44;11.05;;;8.07;;
51020;SDS011;38907;45.562;8.856;2023-06-14T18:27:46;9.98;;;7.95;;
51020;SDS011;38907;45.562;8.856;2023-06-14T18:32:48;8.93;;;8.02;;
51020;SDS011;38907;45.562;8.856;2023-06-14T18:37:51;10.02;;;8.95;;
51020;SDS011;38907;45.562;8.856;2023-06-14T18:42:53;10.60;;;8.82;;
51020;SDS011;38907;45.562;8.856;2023-06-14T18:47:56;11.32;;;9.55;;
51020;SDS011;38907;45.562;8.856;2023-06-14T18:53:00;10.85;;;9.57;;
51020;SDS011;38907;45.562;8.856;2023-06-14T18:58:01;11.43;;;9.05;;
51020;SDS011;38907;45.562;8.856;2023-06-14T19:03:03;10.77;;;8.18;;
51020;SDS011;38907;45.562;8.856;2023-06-14T19:08:07;8.98;;;7.90;;
51020;SDS011;38907;45.562;8.856;2023-06-14T19:13:09;10.77;;;7.63;;
51020;SDS011;38907;45.562;8.856;2023-06-14T19:18:12;10.75;;;7.30;;
51020;SDS011;38907;45.562;8.856;2023-06-14T19:23:15;11.40;;;8.57;;
51020;SDS011;38907;45.562;8.856;2023-06-14T19:28:17;12.13;;;8.88;;
51020;SDS011;38907;45.562;8.856;2023-06-14T19:33:20;11.73;;;8.88;;
51020;SDS011;38907;45.562;8.856;2023-06-14T19:38:23;13.13;;;10.30;;
51020;SDS011;38907;45.562;8.856;2023-06-14T19:43:26;11.73;;;10.07;;
51020;SDS011;38907;45.562;8.856;2023-06-14T19:48:28;11.35;;;9.85;;
51020;SDS011;38907;45.562;8.856;2023-06-14T19:53:31;14.00;;;10.57;;
51020;SDS011;38907;45.562;8.856;2023-06-14T19:58:33;13.27;;;9.88;;
51020;SDS011;38907;45.562;8.856;2023-06-14T20:03:35;12.82;;;10.52;;
51020;SDS011;38907;45.562;8.856;2023-06-14T20:08:38;13.20;;;10.88;;
51020;SDS011;38907;45.562;8.856;2023-06-14T20:13:40;12.20;;;10.55;;
51020;SDS011;38907;45.562;8.856;2023-06-14T20:18:42;15.30;;;11.25;;
51020;SDS011;38907;45.562;8.856;2023-06-14T20:23:45;15.10;;;12.18;;
51020;SDS011;38907;45.562;8.856;2023-06-14T20:28:47;12.43;;;11.18;;
51020;SDS011;38907;45.562;8.856;2023-06-14T20:33:49;14.68;;;11.90;;
51020;SDS011;38907;45.562;8.856;2023-06-14T20:38:52;15.95;;;12.50;;
51020;SDS011;38907;45.562;8.856;2023-06-14T20:43:54;16.27;;;12.70;;
51020;SDS011;38907;45.562;8.856;2023-06-14T20:48:57;17.52;;;13.55;;
51020;SDS011;38907;45.562;8.856;2023-06-14T20:54:00;16.90;;;13.77;;
51020;SDS011;38907;45.562;8.856;2023-06-14T20:59:02;15.90;;;13.05;;
51020;SDS011;38907;45.562;8.856;2023-06-14T21:04:05;13.85;;;12.43;;
51020;SDS011;38907;45.562;8.856;2023-06-14T21:09:12;14.18;;;12.63;;
51020;SDS011;38907;45.562;8.856;2023-06-14T21:14:14;18.58;;;14.50;;
51020;SDS011;38907;45.562;8.856;2023-06-14T21:19:16;17.45;;;15.20;;
51020;SDS011;38907;45.562;8.856;2023-06-14T21:24:20;19.15;;;13.75;;
51020;SDS011;38907;45.562;8.856;2023-06-14T21:29:22;16.73;;;14.25;;
51020;SDS011;38907;45.562;8.856;2023-06-14T21:34:24;16.37;;;14.23;;
51020;SDS011;38907;45.562;8.856;2023-06-14T21:39:27;17.55;;;13.43;;
51020;SDS011;38907;45.562;8.856;2023-06-14T21:44:29;16.67;;;14.18;;
51020;SDS011;38907;45.562;8.856;2023-06-14T21:49:30;20.50;;;13.03;;
51020;SDS011;38907;45.562;8.856;2023-06-14T21:54:34;12.23;;;10.70;;
51020;SDS011;38907;45.562;8.856;2023-06-14T21:59:35;11.55;;;9.73;;
51020;SDS011;38907;45.562;8.856;2023-06-14T22:04:37;11.27;;;9.80;;
51020;SDS011;38907;45.562;8.856;2023-06-14T22:09:40;15.80;;;11.07;;
51020;SDS011;38907;45.562;8.856;2023-06-14T22:14:43;19.85;;;8.48;;
51020;SDS011;38907;45.562;8.856;2023-06-14T22:19:46;12.65;;;10.38;;
51020;SDS011;38907;45.562;8.856;2023-06-14T22:24:52;14.45;;;10.18;;
51020;SDS011;38907;45.562;8.856;2023-06-14T22:29:54;9.95;;;7.07;;
51020;SDS011;38907;45.562;8.856;2023-06-14T22:34:58;10.90;;;8.35;;
51020;SDS011;38907;45.562;8.856;2023-06-14T22:40:04;15.32;;;10.13;;
51020;SDS011;38907;45.562;8.856;2023-06-14T22:45:09;9.30;;;7.80;;
51020;SDS011;38907;45.562;8.856;2023-06-14T22:50:12;12.25;;;9.65;;
51020;SDS011;38907;45.562;8.856;2023-06-14T22:55:15;9.80;;;8.40;;
51020;SDS011;38907;45.562;8.856;2023-06-14T23:00:18;11.63;;;9.63;;
51020;SDS011;38907;45.562;8.856;2023-06-14T23:05:19;15.73;;;11.33;;
51020;SDS011;38907;45.562;8.856;2023-06-14T23:10:23;16.85;;;10.75;;
51020;SDS011;38907;45.562;8.856;2023-06-14T23:15:25;12.32;;;10.25;;
51020;SDS011;38907;45.562;8.856;2023-06-14T23:20:28;12.68;;;10.40;;
51020;SDS011;38907;45.562;8.856;2023-06-14T23:25:33;10.88;;;9.65;;
51020;SDS011;38907;45.562;8.856;2023-06-14T23:30:35;12.93;;;9.40;;
51020;SDS011;38907;45.562;8.856;2023-06-14T23:35:37;9.63;;;8.47;;
51020;SDS011;38907;45.562;8.856;2023-06-14T23:40:42;12.18;;;7.55;;
51020;SDS011;38907;45.562;8.856;2023-06-14T23:45:46;9.65;;;8.63;;
51020;SDS011;38907;45.562;8.856;2023-06-14T23:50:50;12.38;;;10.65;;
51020;SDS011;38907;45.562;8.856;2023-06-14T23:55:54;14.13;;;10.52;;
